A- A+ FrançaisEnglishEspañol中国

Services sur Internet Soldes sur Internet Des idées de cadeaux Météo Météo aéro

La météo à : Autours de vous Tarbes-Lourdes-PyrénéesSt-Pierre-D'oleronGrenoble-Le-Versoud Pau-Pyrénées

La météo aéronautique pour les pilotes, la préparation du vol avec les METAR (METeorological Aerodrome Report, message d'observation des conditions météorologiques pour l'aviation) et Les TAF (Terminal Aerodrome Forecast : message de prévision à court terme des conditions météorologiques pour l'aviation). Et les autres ressources comme les VAC (Visual Approch Chart) et les NOTAM (Notice To Airman) pour préprer les vols.

Aéroport Ottawa Gatineaux (Canada) / OACI CYND / IATA YND

L'altitude de l'aéroport Ottawa Gatineaux est de 64 mètres. Il est situé à proximité de Gatineau (Canada). La météo générale à 5 jours est disponible pour Templeton situé à 4.5 km.

METAR de l'aéroport Ottawa Gatineaux - CYND

CYND 210200Z 27004KT 15SM SKC M06/M06 A3015 RMK LAST STFD OBS/NEXT 211200 UTC SLP216

Décodage du METAR de l'aéroport Ottawa Gatineaux (CA)

METAR émis par CYND le jeudi 21 novembre 2019 à 02:00 heure TU. Attention ce METAR est obsolète car il a été émis il y a 10 heure et 6 minutes.

La visibilité est de 24.1 km = 15 sm.

La température est de -6°C et le point rosée est de -6°C. Ce qui correspond à 100% d'humidité relative.

Le QNH est de 1021 hPa = 30.15 inHg

Vent de 4 kt = 7 km/h, orienté à 270°.

Pas de nuages.

RMK LAST STFD OBS/NEXT 211200 UTC SLP216

TAF de l'aéroport Ottawa Gatineaux - CYND

CYND 202338Z 2100/2102 VRB03KT P6SM SCT060 SCT100 RMK NXT FCST WILL BE ISSUED AT 211345Z

CYND 202338Z 2100/2102 VRB03KT P6SM nuages épars à 060 nuages épars à 100 remarques NXT trombe ST WILL BE ISSUED AT 211345Z

Aéroport à proximité de Ottawa Gatineaux

Météo générale à 5 jours à Templeton (4.5 km)Aéroport Ottawa Rockcliffe (9 km)Aéroport Ottawa Mcdonald Certier Intl (24 km)Aéroport Ottawa Carp (42 km)Aéroport Smith Falls Montague (71 km)Aéroport Massena Intl Richards (86 km)Aéroport Maniwaki (90 km)

Vue aérienne de l'aéroport Ottawa Gatineaux

NOTAM de l'aéroport Ottawa Gatineaux

Les NOTAM sont fournis sans aucune garantie de leur actualité. Le pilote est le seul responsable de la vérification de sa validité avant de l'utiliser opérationnellement pour préparer un vol ou l'utiliser lors de sa navigation.

Pas de NOTAM

Sources des données